Time;durP1;ratioP1;P1;durP2;ratioP2;P2;SDS_P1;SDS_P2;PMS_P1;PMS_P2;Temp;Humidity;BMP_temperature;BMP_pressure;BME280_temperature;BME280_humidity;BME280_pressure;Samples;Min_cycle;Max_cycle;Signal;HPM_P1;HPM_P2
2023/09/16 00:00:18;;;;;;;;;11.00;10.25;;;;;26.26;100.00;100510.00;2113429;27;46174;-61
2023/09/16 00:01:18;;;;;;;;;12.75;12.50;;;;;26.27;100.00;100518.00;2118084;27;46755;-62
2023/09/16 00:02:20;;;;;;;;;10.75;10.75;;;;;26.27;100.00;100514.44;2122533;27;46594;-60
2023/09/16 00:03:20;;;;;;;;;12.20;11.40;;;;;26.26;100.00;100505.41;2122810;27;46613;-61
2023/09/16 00:04:23;;;;;;;;;12.50;12.50;;;;;26.27;100.00;100515.28;2112461;27;46308;-60
2023/09/16 00:05:23;;;;;;;;;9.60;9.20;;;;;26.25;100.00;100514.59;2113772;27;47098;-61
2023/09/16 00:06:24;;;;;;;;;9.50;9.50;;;;;26.24;100.00;100506.56;2113745;27;46578;-60
2023/09/16 00:07:24;;;;;;;;;9.75;9.75;;;;;26.22;100.00;100511.28;2122111;27;46478;-60
2023/09/16 00:08:24;;;;;;;;;11.75;10.00;;;;;26.19;100.00;100507.00;2122862;27;46701;-62
2023/09/16 00:09:25;;;;;;;;;10.50;10.50;;;;;26.20;100.00;100511.44;2122951;27;46281;-62
2023/09/16 00:10:25;;;;;;;;;8.50;8.50;;;;;26.18;100.00;100505.28;2122680;27;46417;-62
2023/09/16 00:11:25;;;;;;;;;11.00;10.00;;;;;26.17;100.00;100506.28;2122685;27;46243;-61
2023/09/16 00:12:26;;;;;;;;;10.25;9.25;;;;;26.00;100.00;100509.63;2122698;27;46787;-60
2023/09/16 00:13:27;;;;;;;;;8.20;8.20;;;;;26.15;100.00;100507.38;2121175;27;46236;-61
2023/09/16 00:14:29;;;;;;;;;9.00;8.00;;;;;26.16;100.00;100507.25;2120673;27;47250;-60
2023/09/16 00:15:29;;;;;;;;;10.00;10.00;;;;;26.16;100.00;100503.66;2118350;27;46826;-60
2023/09/16 00:16:30;;;;;;;;;10.25;8.50;;;;;26.14;100.00;100500.22;2122739;27;46228;-61
2023/09/16 00:17:30;;;;;;;;;9.00;8.25;;;;;26.14;100.00;100502.94;2122678;27;46156;-62
2023/09/16 00:18:31;;;;;;;;;10.25;10.25;;;;;26.12;100.00;100508.53;2122739;27;46266;-61
2023/09/16 00:19:31;;;;;;;;;8.75;8.75;;;;;26.13;100.00;100512.09;2125946;27;46382;-61
2023/09/16 00:20:31;;;;;;;;;9.75;9.50;;;;;26.11;100.00;100509.53;2113556;27;46807;-61
2023/09/16 00:21:32;;;;;;;;;9.25;9.25;;;;;26.11;100.00;100509.53;2113308;27;46811;-60
2023/09/16 00:22:32;;;;;;;;;11.50;10.25;;;;;26.09;100.00;100504.22;2122637;27;46363;-61
2023/09/16 00:23:32;;;;;;;;;10.75;10.00;;;;;26.08;100.00;100505.22;2122545;27;46769;-62
2023/09/16 00:24:33;;;;;;;;;11.50;11.25;;;;;26.08;100.00;100501.66;2122715;27;46550;-61
2023/09/16 00:25:33;;;;;;;;;8.75;8.75;;;;;26.07;100.00;100503.50;2122298;27;46473;-61
2023/09/16 00:26:34;;;;;;;;;9.75;9.75;;;;;26.07;100.00;100500.78;2113565;27;45591;-62
2023/09/16 00:27:40;;;;;;;;;9.80;9.20;;;;;26.06;100.00;100503.66;2105285;27;47251;-62
2023/09/16 00:28:41;;;;;;;;;10.40;9.00;;;;;26.06;100.00;100496.34;2114349;27;46582;-61
2023/09/16 00:29:41;;;;;;;;;8.25;8.25;;;;;26.05;100.00;100502.78;2123385;27;45756;-60
2023/09/16 00:30:48;;;;;;;;;10.25;9.50;;;;;26.04;100.00;100506.53;2122495;27;46297;-61
2023/09/16 00:31:48;;;;;;;;;9.40;9.00;;;;;26.02;100.00;100497.59;2122181;27;46808;-61
2023/09/16 00:32:49;;;;;;;;;10.50;10.25;;;;;26.02;100.00;100492.16;2122724;27;46648;-61
2023/09/16 00:33:49;;;;;;;;;10.75;10.75;;;;;26.01;100.00;100500.47;2122787;27;46857;-61
2023/09/16 00:34:51;;;;;;;;;9.25;9.25;;;;;25.99;100.00;100497.88;2122980;27;46631;-61
2023/09/16 00:35:51;;;;;;;;;9.20;9.20;;;;;25.99;100.00;100506.06;2122795;27;46941;-61
2023/09/16 00:36:51;;;;;;;;;11.50;10.00;;;;;25.98;100.00;100498.88;2123135;27;45642;-61
2023/09/16 00:37:52;;;;;;;;;10.00;10.00;;;;;25.95;100.00;100493.75;2122479;27;46547;-58
2023/09/16 00:38:52;;;;;;;;;10.50;9.00;;;;;25.96;100.00;100492.72;2122499;27;46652;-62
2023/09/16 00:39:52;;;;;;;;;9.75;9.25;;;;;25.95;100.00;100496.47;2122428;27;46352;-62
2023/09/16 00:40:52;;;;;;;;;10.50;9.25;;;;;25.95;100.00;100496.47;2122820;27;46896;-62
2023/09/16 00:41:53;;;;;;;;;9.00;9.00;;;;;25.94;100.00;100493.88;2113157;27;46499;-60
2023/09/16 00:42:53;;;;;;;;;11.25;9.00;;;;;25.93;100.00;100494.88;2113470;27;46310;-60
2023/09/16 00:43:53;;;;;;;;;11.25;10.00;;;;;25.92;100.00;100496.75;2122506;27;46768;-61
2023/09/16 00:44:54;;;;;;;;;10.50;10.50;;;;;25.93;100.00;100494.88;2122395;27;46606;-61
2023/09/16 00:45:54;;;;;;;;;9.00;9.00;;;;;25.93;100.00;100498.47;2122768;27;46515;-62
2023/09/16 00:46:54;;;;;;;;;8.50;8.00;;;;;25.91;100.00;100489.56;2086967;28;47013;-61
2023/09/16 00:47:55;;;;;;;;;11.25;9.50;;;;;25.91;100.00;100494.13;2087907;28;46567;-62
2023/09/16 00:48:55;;;;;;;;;11.00;11.00;;;;;25.92;100.00;100491.31;2113832;27;45900;-61
2023/09/16 00:49:57;;;;;;;;;8.00;8.00;;;;;25.92;100.00;100488.59;2113150;27;46628;-62
2023/09/16 00:50:57;;;;;;;;;8.20;8.20;;;;;25.90;100.00;100490.56;2113523;27;46702;-62
2023/09/16 00:51:58;;;;;;;;;9.25;9.25;;;;;25.92;100.00;100495.84;2113488;27;46234;-61
2023/09/16 00:52:59;;;;;;;;;11.25;9.75;;;;;25.79;100.00;100487.91;2121879;27;47007;-61
2023/09/16 00:54:01;;;;;;;;;8.40;8.40;;;;;25.80;100.00;100493.25;2122495;27;47029;-61
2023/09/16 00:55:02;;;;;;;;;9.00;9.00;;;;;25.85;100.00;100490.13;2122185;27;46576;-61
2023/09/16 00:56:03;;;;;;;;;11.75;11.00;;;;;25.85;100.00;100492.84;2121922;27;46581;-61
2023/09/16 00:57:08;;;;;;;;;10.40;8.60;;;;;25.84;100.00;100496.53;2120877;27;46139;-61
2023/09/16 00:58:11;;;;;;;;;7.50;5.50;;;;;25.82;100.00;100490.41;2122125;27;46629;-60
2023/09/16 00:59:12;;;;;;;;;9.40;8.60;;;;;25.82;100.00;100487.69;2121327;27;46450;-60
2023/09/16 01:00:16;;;;;;;;;8.00;8.00;;;;;25.81;100.00;100489.53;2121987;27;46603;-61
2023/09/16 01:01:17;;;;;;;;;7.60;7.60;;;;;25.80;100.00;100492.38;2122247;27;46388;-60
2023/09/16 01:02:17;;;;;;;;;8.25;8.25;;;;;25.77;100.00;100482.63;2122549;27;46129;-60
2023/09/16 01:03:19;;;;;;;;;7.50;7.50;;;;;25.75;100.00;100481.03;2122624;27;45573;-61
2023/09/16 01:04:21;;;;;;;;;7.40;7.40;;;;;25.72;100.00;100487.63;2095211;28;46639;-60
2023/09/16 01:05:22;;;;;;;;;8.40;8.40;;;;;25.70;100.00;100481.47;2089219;27;45480;-60
2023/09/16 01:06:22;;;;;;;;;9.00;9.00;;;;;25.69;100.00;100478.88;2113264;27;46989;-60
2023/09/16 01:07:24;;;;;;;;;9.75;9.50;;;;;25.68;100.00;100475.28;2121804;27;46157;-60
2023/09/16 01:08:25;;;;;;;;;13.00;10.40;;;;;25.70;100.00;100477.88;2112603;27;45473;-60
2023/09/16 01:09:25;;;;;;;;;10.00;9.25;;;;;25.68;100.00;100477.13;2112602;27;46473;-60
2023/09/16 01:10:25;;;;;;;;;10.00;10.00;;;;;25.67;100.00;100478.13;2122031;27;46291;-60
2023/09/16 01:11:26;;;;;;;;;7.00;7.00;;;;;25.64;100.00;100481.97;2122291;27;46283;-62
2023/09/16 01:12:26;;;;;;;;;8.50;7.75;;;;;25.62;100.00;100483.09;2121094;27;46667;-61
2023/09/16 01:13:26;;;;;;;;;8.75;8.75;;;;;25.62;100.00;100483.97;2113559;27;46603;-60
2023/09/16 01:14:27;;;;;;;;;8.25;8.25;;;;;25.61;100.00;100481.38;2113280;27;46607;-60
2023/09/16 01:15:31;;;;;;;;;8.75;8.25;;;;;25.59;100.00;100480.66;2122006;27;46361;-60
2023/09/16 01:16:48;;;;;;;;;9.20;9.20;;;;;25.64;100.00;100483.81;2118974;27;46374;-61
2023/09/16 01:18:20;;;;;;;;;9.60;9.40;;;;;25.61;100.00;100479.53;2122051;27;46582;-61
2023/09/16 01:19:20;;;;;;;;;9.60;9.60;;;;;25.59;100.00;100484.25;2078581;28;46200;-61
2023/09/16 01:20:21;;;;;;;;;12.25;12.25;;;;;25.62;100.00;100478.53;2079400;28;45542;-61
2023/09/16 01:21:22;;;;;;;;;10.20;8.20;;;;;25.63;100.00;100482.97;2079393;28;46901;-61
2023/09/16 01:22:24;;;;;;;;;8.80;7.80;;;;;25.64;100.00;100483.81;2078643;28;46291;-61
2023/09/16 01:23:24;;;;;;;;;11.00;9.25;;;;;25.62;100.00;100481.25;2079253;28;46864;-61
2023/09/16 01:24:24;;;;;;;;;9.00;9.00;;;;;25.63;100.00;100480.25;2078771;28;46394;-61
2023/09/16 01:25:26;;;;;;;;;18.00;17.00;;;;;25.62;100.00;100478.53;2078879;28;46261;-61
2023/09/16 01:26:26;;;;;;;;;19.00;19.00;;;;;25.66;100.00;100477.25;2079401;28;46624;-61
2023/09/16 01:27:27;;;;;;;;;17.25;17.25;;;;;25.68;100.00;100480.72;2079528;28;46592;-61
2023/09/16 01:28:27;;;;;;;;;18.50;17.00;;;;;25.68;100.00;100474.41;2078779;28;46343;-61
2023/09/16 01:29:29;;;;;;;;;16.00;14.25;;;;;25.71;100.00;100482.31;2079175;28;46159;-62
2023/09/16 01:30:35;;;;;;;;;10.20;10.20;;;;;25.71;100.00;100476.88;2079381;28;46647;-63
2023/09/16 01:31:36;;;;;;;;;10.00;10.00;;;;;25.70;100.00;100477.88;2078802;28;46864;-62
2023/09/16 01:32:56;;;;;;;;;8.60;8.40;;;;;25.68;100.00;100477.13;2078944;28;46229;-63
2023/09/16 01:34:00;;;;;;;;;6.00;6.00;;;;;25.67;100.00;100476.28;2079201;28;46524;-62
2023/09/16 01:35:04;;;;;;;;;8.20;8.20;;;;;25.65;100.00;100471.94;2079003;28;46322;-63
2023/09/16 01:36:12;;;;;;;;;8.60;7.60;;;;;25.65;100.00;100475.53;2079377;28;46312;-61
2023/09/16 01:37:16;;;;;;;;;7.00;7.00;;;;;25.65;100.00;100482.81;2078868;28;46796;-61
2023/09/16 01:38:21;;;;;;;;;7.40;5.40;;;;;25.62;100.00;100473.09;2072209;28;46501;-61
2023/09/16 01:39:23;;;;;;;;;8.25;7.00;;;;;25.62;100.00;100474.94;2070948;28;46618;-60
2023/09/16 01:40:26;;;;;;;;;9.00;8.00;;;;;25.60;100.00;100477.81;2071691;28;46303;-61
2023/09/16 01:41:27;;;;;;;;;8.00;6.75;;;;;25.58;100.00;100478.94;2079039;28;46489;-61
2023/09/16 01:42:30;;;;;;;;;9.00;9.00;;;;;25.58;100.00;100471.66;2079925;28;46305;-59
2023/09/16 01:43:31;;;;;;;;;7.00;6.40;;;;;25.58;100.00;100478.94;2078924;28;46576;-60
2023/09/16 01:44:31;;;;;;;;;8.25;8.25;;;;;25.57;100.00;100472.66;2070677;28;46668;-61
2023/09/16 01:45:40;;;;;;;;;8.00;8.00;;;;;25.56;100.00;100473.66;2070998;28;45446;-61
2023/09/16 01:46:40;;;;;;;;;14.80;14.40;;;;;25.53;100.00;100469.31;2078633;28;46623;-61
2023/09/16 01:47:41;;;;;;;;;16.00;15.00;;;;;25.54;100.00;100475.66;2084150;28;46682;-61
2023/09/16 01:48:41;;;;;;;;;11.00;9.00;;;;;25.57;100.00;100474.50;2072146;28;46270;-61
2023/09/16 01:49:42;;;;;;;;;14.50;14.00;;;;;25.56;100.00;100472.78;2071267;28;46569;-61
2023/09/16 01:50:43;;;;;;;;;24.00;19.50;;;;;25.50;100.00;100475.03;2079052;28;46549;-61
2023/09/16 01:51:43;;;;;;;;;21.40;19.80;;;;;25.58;100.00;100471.66;2070766;28;46552;-60
2023/09/16 01:52:44;;;;;;;;;17.50;16.25;;;;;25.59;100.00;100469.78;2070704;28;46553;-61
2023/09/16 01:53:44;;;;;;;;;18.25;18.00;;;;;25.60;100.00;100475.09;2078909;28;46740;-61
2023/09/16 01:54:44;;;;;;;;;17.25;17.00;;;;;25.61;100.00;100465.06;2079252;28;46361;-61
2023/09/16 01:55:45;;;;;;;;;30.75;28.00;;;;;25.61;100.00;100468.66;2078391;28;46476;-60
2023/09/16 01:56:45;;;;;;;;;21.00;19.00;;;;;25.61;100.00;100465.94;2080411;27;46364;-60
2023/09/16 01:57:45;;;;;;;;;15.00;13.75;;;;;25.62;100.00;100467.66;2120757;27;46423;-58
2023/09/16 01:58:46;;;;;;;;;10.75;10.75;;;;;25.62;100.00;100464.94;2113148;27;46453;-61
2023/09/16 01:59:46;;;;;;;;;10.00;10.00;;;;;25.61;100.00;100463.22;2103476;28;46855;-61
2023/09/16 02:00:47;;;;;;;;;8.25;8.25;;;;;25.61;100.00;100463.22;2109178;27;46752;-61
2023/09/16 02:01:48;;;;;;;;;9.00;6.60;;;;;25.61;100.00;100459.63;2121906;27;46172;-61
2023/09/16 02:02:48;;;;;;;;;7.50;7.50;;;;;25.57;100.00;100458.19;2109307;27;46383;-61
2023/09/16 02:03:49;;;;;;;;;7.00;7.00;;;;;25.57;100.00;100463.63;2113081;27;46720;-61
2023/09/16 02:04:49;;;;;;;;;1.50;1.50;;;;;25.56;100.00;100467.34;2117627;27;46499;-60
2023/09/16 02:05:49;;;;;;;;;9.00;9.00;;;;;25.55;100.00;100463.78;2119810;27;46642;-61
2023/09/16 02:06:50;;;;;;;;;7.00;6.50;;;;;25.55;100.00;100465.63;2121992;27;46599;-60
2023/09/16 02:07:50;;;;;;;;;8.00;7.25;;;;;25.53;100.00;100457.59;2121678;27;46492;-60
2023/09/16 02:08:50;;;;;;;;;10.75;10.75;;;;;25.55;100.00;100463.78;2118086;27;46771;-60
2023/09/16 02:09:51;;;;;;;;;15.00;14.00;;;;;25.55;100.00;100460.19;2122260;27;46748;-60
2023/09/16 02:10:51;;;;;;;;;23.00;22.00;;;;;25.54;100.00;100459.34;2120943;27;46466;-61
2023/09/16 02:11:51;;;;;;;;;19.75;15.75;;;;;25.55;100.00;100457.47;2115785;27;46398;-61
2023/09/16 02:12:52;;;;;;;;;10.75;10.50;;;;;25.53;100.00;100450.28;2121754;27;49586;-61
2023/09/16 02:13:52;;;;;;;;;11.00;8.75;;;;;25.52;100.00;100450.44;2121993;27;46421;-61
2023/09/16 02:14:53;;;;;;;;;9.00;9.00;;;;;25.51;100.00;100455.00;2122017;27;46285;-59
2023/09/16 02:15:53;;;;;;;;;6.20;6.20;;;;;25.50;100.00;100449.72;2116116;27;46830;-60
2023/09/16 02:16:54;;;;;;;;;8.25;8.25;;;;;25.48;100.00;100446.28;2116438;27;46319;-62
2023/09/16 02:17:54;;;;;;;;;7.00;7.00;;;;;25.48;100.00;100447.13;2121921;27;46497;-61
2023/09/16 02:18:54;;;;;;;;;9.00;9.00;;;;;25.47;100.00;100444.56;2121883;27;46841;-61
2023/09/16 02:19:55;;;;;;;;;11.50;10.25;;;;;25.49;100.00;100450.72;2121469;27;46461;-61
2023/09/16 02:20:55;;;;;;;;;12.00;12.00;;;;;25.49;100.00;100442.56;2112757;27;46110;-60
2023/09/16 02:21:55;;;;;;;;;13.00;11.00;;;;;25.50;100.00;100447.00;2112746;27;46273;-61
2023/09/16 02:22:56;;;;;;;;;11.25;8.50;;;;;25.48;100.00;100446.28;2114463;27;46651;-59
2023/09/16 02:23:56;;;;;;;;;10.75;9.00;;;;;25.48;100.00;100444.41;2121898;27;46594;-60
2023/09/16 02:24:56;;;;;;;;;8.00;8.00;;;;;25.47;100.00;100445.41;2121303;27;46292;-60
2023/09/16 02:26:01;;;;;;;;;29.50;25.25;;;;;25.47;100.00;100447.28;2121714;27;46461;-61
2023/09/16 02:27:01;;;;;;;;;27.00;25.20;;;;;25.48;100.00;100446.28;2119860;27;47652;-61
2023/09/16 02:28:01;;;;;;;;;37.50;32.50;;;;;25.49;100.00;100442.56;2122079;27;46274;-61
2023/09/16 02:29:02;;;;;;;;;35.75;31.00;;;;;25.50;100.00;100436.13;2120517;27;46495;-61
2023/09/16 02:30:02;;;;;;;;;40.00;34.00;;;;;25.51;100.00;100437.84;2120595;27;46429;-61
2023/09/16 02:31:03;;;;;;;;;21.25;20.50;;;;;25.53;100.00;100441.28;2122281;27;46700;-61
2023/09/16 02:32:03;;;;;;;;;20.75;18.75;;;;;25.52;100.00;100436.84;2122376;27;46392;-61
2023/09/16 02:33:04;;;;;;;;;12.00;12.00;;;;;25.53;100.00;100430.41;2121377;27;46807;-61
2023/09/16 02:34:04;;;;;;;;;11.00;11.00;;;;;25.52;100.00;100434.13;2111990;27;46215;-61
2023/09/16 02:35:04;;;;;;;;;10.00;9.00;;;;;25.51;100.00;100437.84;2108984;27;46885;-61
2023/09/16 02:36:05;;;;;;;;;4.75;4.75;;;;;25.49;100.00;100435.28;2122185;27;46499;-61
2023/09/16 02:37:05;;;;;;;;;7.00;7.00;;;;;25.49;100.00;100442.56;2122146;27;46193;-61
2023/09/16 02:38:06;;;;;;;;;7.00;6.50;;;;;25.47;100.00;100442.69;2114417;27;46262;-61
2023/09/16 02:39:06;;;;;;;;;10.00;10.00;;;;;25.49;100.00;100448.84;2115825;27;46795;-60
2023/09/16 02:40:07;;;;;;;;;8.25;8.00;;;;;25.48;100.00;100436.28;2120395;27;46794;-61
2023/09/16 02:41:07;;;;;;;;;8.60;8.60;;;;;25.46;100.00;100440.97;2121480;27;45204;-61
2023/09/16 02:42:08;;;;;;;;;7.25;7.25;;;;;25.45;100.00;100433.84;2122069;27;46684;-61
2023/09/16 02:43:08;;;;;;;;;9.25;8.50;;;;;25.43;100.00;100430.41;2121696;27;46540;-61
2023/09/16 02:44:09;;;;;;;;;8.50;8.50;;;;;25.41;100.00;100431.50;2121621;27;46473;-61
2023/09/16 02:45:10;;;;;;;;;8.00;8.00;;;;;25.38;100.00;100432.63;2112787;27;46826;-61
2023/09/16 02:46:10;;;;;;;;;8.00;8.00;;;;;25.40;100.00;100427.94;2112659;27;46763;-60
2023/09/16 02:47:11;;;;;;;;;11.75;10.25;;;;;25.39;100.00;100431.63;2111896;27;46536;-60
2023/09/16 02:48:11;;;;;;;;;7.00;7.00;;;;;25.44;100.00;100428.53;2121166;27;46608;-61
2023/09/16 02:49:12;;;;;;;;;8.50;8.50;;;;;25.44;100.00;100432.13;2121517;27;46405;-61
2023/09/16 02:50:12;;;;;;;;;8.50;8.00;;;;;25.42;100.00;100434.13;2121736;27;46393;-61
2023/09/16 02:51:12;;;;;;;;;7.50;7.50;;;;;25.44;100.00;100434.81;2121376;27;46376;-60
2023/09/16 02:52:15;;;;;;;;;8.75;8.75;;;;;25.44;100.00;100433.97;2122138;27;47026;-61
2023/09/16 02:53:17;;;;;;;;;7.80;7.80;;;;;25.43;100.00;100433.13;2111138;27;46418;-61
2023/09/16 02:54:17;;;;;;;;;7.60;6.40;;;;;25.44;100.00;100433.97;2107519;27;46662;-61
2023/09/16 02:55:18;;;;;;;;;9.25;8.50;;;;;25.44;100.00;100431.25;2121862;27;46489;-61
2023/09/16 02:56:18;;;;;;;;;5.25;5.25;;;;;25.45;100.00;100438.41;2121771;27;46827;-61
2023/09/16 02:57:18;;;;;;;;;9.75;7.75;;;;;25.43;100.00;100435.81;2121826;27;46599;-61
2023/09/16 02:58:19;;;;;;;;;6.75;6.75;;;;;25.45;100.00;100439.25;2112455;27;46666;-61
2023/09/16 02:59:19;;;;;;;;;6.75;6.75;;;;;25.45;100.00;100428.41;2112892;27;46439;-61
2023/09/16 03:00:19;;;;;;;;;8.00;8.00;;;;;25.43;100.00;100427.69;2121701;27;46369;-61
2023/09/16 03:01:20;;;;;;;;;11.00;10.00;;;;;25.41;100.00;100429.69;2121647;27;46057;-61
2023/09/16 03:02:20;;;;;;;;;8.25;7.00;;;;;25.40;100.00;100430.63;2121471;27;46364;-61
2023/09/16 03:03:20;;;;;;;;;7.50;7.50;;;;;25.38;100.00;100429.06;2111154;27;46609;-60
2023/09/16 03:04:21;;;;;;;;;8.25;8.25;;;;;25.35;100.00;100430.19;2112357;27;46625;-61
2023/09/16 03:05:21;;;;;;;;;6.50;6.50;;;;;25.35;100.00;100418.47;2121844;27;46258;-61
2023/09/16 03:06:22;;;;;;;;;12.75;11.75;;;;;25.35;100.00;100424.75;2121517;27;47149;-61
2023/09/16 03:07:23;;;;;;;;;10.00;10.00;;;;;25.35;100.00;100418.47;2113371;27;46781;-61
2023/09/16 03:08:23;;;;;;;;;11.25;9.75;;;;;25.33;100.00;100415.03;2107352;27;46586;-59
2023/09/16 03:09:23;;;;;;;;;8.00;7.00;;;;;25.33;100.00;100417.75;2104123;28;46425;-61
2023/09/16 03:10:24;;;;;;;;;8.75;8.75;;;;;25.30;100.00;100424.31;2106542;27;46132;-60
2023/09/16 03:11:24;;;;;;;;;7.25;6.00;;;;;25.31;100.00;100426.03;2121498;27;46806;-60
2023/09/16 03:12:24;;;;;;;;;6.75;6.75;;;;;25.31;100.00;100425.19;2121875;27;46647;-61
2023/09/16 03:13:25;;;;;;;;;9.50;9.50;;;;;25.32;100.00;100425.03;2120112;27;46661;-61
2023/09/16 03:14:25;;;;;;;;;10.00;9.00;;;;;25.34;100.00;100414.91;2120139;27;46266;-60
2023/09/16 03:15:25;;;;;;;;;7.50;7.50;;;;;25.33;100.00;100426.75;2121842;27;46402;-61
2023/09/16 03:16:26;;;;;;;;;9.75;9.00;;;;;25.32;100.00;100419.59;2121344;27;46685;-61
2023/09/16 03:17:26;;;;;;;;;8.50;8.50;;;;;25.29;100.00;100414.47;2121982;27;46255;-61
2023/09/16 03:18:27;;;;;;;;;8.00;8.00;;;;;25.30;100.00;100418.03;2122533;27;46399;-60
2023/09/16 03:19:28;;;;;;;;;8.25;8.25;;;;;25.29;100.00;100410.88;2121612;27;46687;-59
2023/09/16 03:20:28;;;;;;;;;8.00;8.00;;;;;25.31;100.00;100414.31;2121649;27;46407;-60
2023/09/16 03:21:29;;;;;;;;;7.00;7.00;;;;;25.30;100.00;100413.47;2120169;27;46297;-61
2023/09/16 03:22:29;;;;;;;;;7.00;7.00;;;;;25.28;100.00;100410.00;2121885;27;46937;-58
2023/09/16 03:23:30;;;;;;;;;9.00;8.00;;;;;25.27;100.00;100413.69;2122569;27;46971;-61
2023/09/16 03:24:30;;;;;;;;;9.75;9.75;;;;;25.25;100.00;100410.28;2123097;27;46923;-57
2023/09/16 03:25:30;;;;;;;;;8.25;8.25;;;;;25.24;100.00;100417.56;2122786;27;46447;-60
2023/09/16 03:26:31;;;;;;;;;8.00;6.75;;;;;25.24;100.00;100417.56;2114102;27;46432;-60
2023/09/16 03:27:31;;;;;;;;;6.00;6.00;;;;;25.23;100.00;100413.13;2105682;28;46685;-60
2023/09/16 03:28:31;;;;;;;;;7.25;7.25;;;;;25.23;100.00;100410.41;2114080;27;46265;-60
2023/09/16 03:29:32;;;;;;;;;9.00;9.00;;;;;25.25;100.00;100418.41;2113666;27;46844;-60
2023/09/16 03:30:32;;;;;;;;;8.00;7.00;;;;;25.23;100.00;100404.13;2114234;27;46292;-59
2023/09/16 03:31:32;;;;;;;;;5.00;5.00;;;;;25.25;100.00;100410.28;2113804;27;46348;-61
2023/09/16 03:32:33;;;;;;;;;6.50;6.50;;;;;25.25;100.00;100407.56;2104392;28;46071;-59
2023/09/16 03:33:33;;;;;;;;;9.75;8.00;;;;;25.26;100.00;100403.84;2104988;28;46321;-60
2023/09/16 03:34:33;;;;;;;;;10.25;8.25;;;;;25.26;100.00;100402.97;2122826;27;46288;-60
2023/09/16 03:35:34;;;;;;;;;8.75;8.75;;;;;25.24;100.00;100405.84;2122822;27;46455;-61
2023/09/16 03:36:35;;;;;;;;;8.60;7.20;;;;;25.25;100.00;100402.13;2114290;27;47304;-60
2023/09/16 03:37:35;;;;;;;;;9.00;9.00;;;;;25.24;100.00;100403.97;2112472;27;46845;-60
2023/09/16 03:38:45;;;;;;;;;7.75;7.75;;;;;25.24;100.00;100406.69;2104586;27;46557;-60
2023/09/16 03:39:45;;;;;;;;;11.80;10.20;;;;;25.21;100.00;100404.25;2107778;27;46753;-61
2023/09/16 03:40:45;;;;;;;;;10.75;9.25;;;;;25.19;100.00;100406.25;2122952;27;46697;-61
2023/09/16 03:41:46;;;;;;;;;9.50;9.25;;;;;25.18;100.00;100400.97;2123214;27;46628;-61
2023/09/16 03:42:46;;;;;;;;;8.50;6.75;;;;;25.19;100.00;100399.97;2123553;27;46219;-61
2023/09/16 03:43:46;;;;;;;;;9.75;9.00;;;;;25.18;100.00;100403.66;2123314;27;46210;-60
2023/09/16 03:44:47;;;;;;;;;7.00;7.00;;;;;25.15;100.00;100407.50;2123066;27;46188;-60
2023/09/16 03:45:47;;;;;;;;;10.00;8.00;;;;;25.14;100.00;100407.63;2123209;27;46566;-61
2023/09/16 03:46:50;;;;;;;;;10.75;9.50;;;;;25.13;100.00;100416.78;2122866;27;46898;-60
2023/09/16 03:47:51;;;;;;;;;9.00;8.80;;;;;25.11;100.00;100419.63;2123102;27;46829;-60
2023/09/16 03:48:51;;;;;;;;;6.50;6.50;;;;;25.09;100.00;100408.03;2122941;27;46633;-60
2023/09/16 03:49:51;;;;;;;;;11.00;10.25;;;;;25.10;100.00;100417.91;2123033;27;46465;-60
2023/09/16 03:50:52;;;;;;;;;6.25;6.25;;;;;25.08;100.00;100409.03;2122901;27;46467;-60
2023/09/16 03:51:52;;;;;;;;;7.75;7.75;;;;;25.12;100.00;100409.63;2122964;27;46663;-60
2023/09/16 03:52:53;;;;;;;;;8.50;8.50;;;;;25.12;100.00;100398.75;2122511;27;46261;-60
2023/09/16 03:53:56;;;;;;;;;9.25;8.25;;;;;25.13;100.00;100397.75;2123172;27;46628;-59
2023/09/16 03:54:56;;;;;;;;;8.80;8.00;;;;;25.12;100.00;100399.63;2114063;27;46763;-61
2023/09/16 03:55:56;;;;;;;;;7.75;7.75;;;;;25.09;100.00;100409.91;2113881;27;46118;-60
2023/09/16 03:56:57;;;;;;;;;8.00;8.00;;;;;25.08;100.00;100405.47;2122592;27;46795;-57
2023/09/16 03:57:57;;;;;;;;;6.75;6.75;;;;;25.07;100.00;100412.75;2121614;27;46525;-62
2023/09/16 03:58:57;;;;;;;;;8.75;8.75;;;;;25.06;100.00;100402.88;2122761;27;46818;-61
2023/09/16 03:59:58;;;;;;;;;6.00;6.00;;;;;25.08;100.00;100409.03;2123019;27;46530;-61
2023/09/16 04:00:58;;;;;;;;;8.00;8.00;;;;;25.05;100.00;100406.59;2116442;27;46200;-62
2023/09/16 04:01:58;;;;;;;;;8.25;8.00;;;;;25.09;100.00;100413.47;2115780;27;46820;-60
2023/09/16 04:02:59;;;;;;;;;8.00;8.00;;;;;25.05;100.00;100411.16;2123105;27;46679;-62
2023/09/16 04:03:59;;;;;;;;;8.75;8.75;;;;;25.08;100.00;100406.31;2122965;27;46295;-59
2023/09/16 04:04:59;;;;;;;;;9.50;9.50;;;;;25.09;100.00;100404.47;2122930;27;46508;-60
2023/09/16 04:06:01;;;;;;;;;10.25;10.25;;;;;25.09;100.00;100394.47;2122510;27;46748;-60
2023/09/16 04:07:01;;;;;;;;;8.40;8.40;;;;;25.09;100.00;100390.88;2122747;27;46446;-60
2023/09/16 04:08:02;;;;;;;;;8.00;8.00;;;;;25.08;100.00;100395.47;2122815;27;46582;-60
2023/09/16 04:09:02;;;;;;;;;9.00;9.00;;;;;25.06;100.00;100385.75;2122640;27;46797;-62
2023/09/16 04:10:03;;;;;;;;;8.00;6.25;;;;;25.06;100.00;100386.59;2116156;27;47006;-60
2023/09/16 04:11:03;;;;;;;;;7.75;7.50;;;;;25.07;100.00;100387.47;2122746;27;46364;-62
2023/09/16 04:12:04;;;;;;;;;9.25;9.25;;;;;25.08;100.00;100391.88;2122927;27;46652;-61
2023/09/16 04:13:04;;;;;;;;;9.50;9.50;;;;;25.05;100.00;100393.03;2122592;27;46290;-61
2023/09/16 04:14:05;;;;;;;;;10.25;10.25;;;;;25.02;100.00;100395.97;2122011;27;46746;-61
2023/09/16 04:15:06;;;;;;;;;11.75;11.75;;;;;25.01;100.00;100385.25;2122215;27;46428;-61
2023/09/16 04:16:06;;;;;;;;;12.60;12.60;;;;;24.99;100.00;100385.38;2122941;27;46355;-61
2023/09/16 04:17:06;;;;;;;;;10.00;9.00;;;;;24.99;100.00;100384.50;2113530;27;47046;-61
2023/09/16 04:18:07;;;;;;;;;8.75;8.75;;;;;24.96;100.00;100388.34;2113686;27;46212;-59
2023/09/16 04:19:07;;;;;;;;;8.00;8.00;;;;;24.95;100.00;100387.50;2122841;27;46542;-61
2023/09/16 04:20:08;;;;;;;;;8.67;7.67;;;;;24.95;100.00;100386.63;2122273;27;46615;-61
2023/09/16 04:21:08;;;;;;;;;9.00;9.00;;;;;24.94;100.00;100391.19;2123087;27;46634;-61
2023/09/16 04:22:09;;;;;;;;;8.67;8.67;;;;;24.94;100.00;100396.63;2104260;28;46510;-61
2023/09/16 04:23:09;;;;;;;;;8.00;7.00;;;;;24.93;100.00;100394.06;2104834;28;46805;-61
2023/09/16 04:24:11;;;;;;;;;9.00;9.00;;;;;24.92;100.00;100398.63;2122451;27;46580;-61
2023/09/16 04:25:12;;;;;;;;;9.25;8.25;;;;;24.92;100.00;100392.34;2104116;28;46239;-61
2023/09/16 04:26:15;;;;;;;;;8.40;8.20;;;;;24.86;100.00;100390.13;2105214;27;46948;-58
2023/09/16 04:27:15;;;;;;;;;7.00;7.00;;;;;24.89;100.00;100385.28;2122654;27;46831;-59
2023/09/16 04:28:15;;;;;;;;;6.75;6.75;;;;;24.91;100.00;100383.34;2122336;27;46251;-62
2023/09/16 04:29:16;;;;;;;;;10.25;10.25;;;;;24.89;100.00;100382.59;2113903;27;46298;-61
2023/09/16 04:30:16;;;;;;;;;9.00;9.00;;;;;24.87;100.00;100379.16;2112627;27;46205;-60
2023/09/16 04:31:16;;;;;;;;;8.00;8.00;;;;;24.86;100.00;100382.00;2113424;27;46203;-61
2023/09/16 04:32:17;;;;;;;;;8.75;8.75;;;;;24.84;100.00;100379.41;2113566;27;46193;-61
2023/09/16 04:33:18;;;;;;;;;7.67;7.67;;;;;24.84;100.00;100384.00;2121414;27;46234;-61
2023/09/16 04:34:18;;;;;;;;;8.25;7.25;;;;;24.83;100.00;100376.84;2121250;27;46524;-61
2023/09/16 04:35:18;;;;;;;;;9.00;9.00;;;;;24.83;100.00;100376.84;2122449;27;46412;-61
2023/09/16 04:36:19;;;;;;;;;9.25;9.00;;;;;24.81;100.00;100367.97;2122444;27;46790;-60
2023/09/16 04:37:19;;;;;;;;;11.00;9.67;;;;;24.81;100.00;100373.41;2122686;27;46284;-61
2023/09/16 04:38:20;;;;;;;;;8.50;7.75;;;;;24.82;100.00;100373.28;2122776;27;46879;-61